Clarklake, Michigan
Current Conditions -  °F | °C
As of 1:56 PM on Friday 24 Oct 2014 (Local Time) from KJXN Reporting Station
Overcast Overcast  
Wind Chill: 57°   Ceiling: 2400
Heat Index: 57°   Visibility: 10mi
Dew Point: 46°   Wind: 6mph
Humidity: 67%   Direction: 270°W
Pressure: 30.03"   Gusts: NA
Location:  42.12°N, 84.34°W
Report Text: KJXN 241756Z 27005KT 10SM OVC024 14/08 A3003 RMK AO2 SLP172 T01390078 10139 20022 58014
Loading
Personal Weather Stations






























Interactive Weather Map
Tropical Storm Tracking
New forecast layout! Learn more

10-Day Weather Forecast

Advertisements
Track Severe Weather on mobile